Time;durP1;ratioP1;P1;durP2;ratioP2;P2;SDS_P1;SDS_P2;PMS_P1;PMS_P2;Temp;Humidity;BMP_temperature;BMP_pressure;BME280_temperature;BME280_humidity;BME280_pressure;Samples;Min_cycle;Max_cycle;Signal;HPM_P1;HPM_P2
2021/09/15 00:00:17;;;;;;;3.33;0.63;;;;;;;10.19;59.11;98673.00;5090244;28;20040;-63
2021/09/15 00:02:43;;;;;;;1.55;0.57;;;;;;;10.23;59.19;98689.25;5101140;28;20418;-62
2021/09/15 00:05:09;;;;;;;2.28;0.60;;;;;;;10.18;59.35;98684.28;5092107;28;20061;-63
2021/09/15 00:07:35;;;;;;;1.73;0.68;;;;;;;10.19;59.40;98682.53;5099159;28;20076;-61
2021/09/15 00:10:00;;;;;;;5.82;0.80;;;;;;;10.25;59.49;98684.84;5090179;28;20036;-62
2021/09/15 00:12:26;;;;;;;1.65;0.90;;;;;;;10.30;59.43;98682.00;5110287;27;20078;-63
2021/09/15 00:14:52;;;;;;;3.30;0.65;;;;;;;10.31;59.22;98683.69;5102797;28;20067;-62
2021/09/15 00:17:18;;;;;;;2.78;0.90;;;;;;;10.31;59.71;98681.91;5090504;28;20059;-62
2021/09/15 00:19:44;;;;;;;1.50;0.43;;;;;;;10.22;59.32;98674.59;5090242;28;20036;-61
2021/09/15 00:22:10;;;;;;;5.25;0.70;;;;;;;10.26;59.24;98683.91;5072346;28;20070;-62
2021/09/15 00:24:36;;;;;;;1.20;0.47;;;;;;;10.26;59.54;98686.50;5095741;28;20044;-61
2021/09/15 00:27:01;;;;;;;4.20;1.30;;;;;;;10.24;59.95;98688.34;5096859;28;20032;-62
2021/09/15 00:29:27;;;;;;;1.85;0.63;;;;;;;10.19;60.26;98690.31;5094079;28;20043;-63
2021/09/15 00:31:53;;;;;;;1.30;0.60;;;;;;;10.22;60.06;98691.91;5089468;28;20119;-62
2021/09/15 00:34:18;;;;;;;1.90;0.65;;;;;;;10.24;60.25;98696.13;5072174;28;20044;-62
2021/09/15 00:36:44;;;;;;;2.75;0.60;;;;;;;10.24;60.14;98695.28;5089404;28;20101;-62
2021/09/15 00:39:10;;;;;;;3.17;0.82;;;;;;;10.19;60.54;98698.13;5088382;28;20044;-64
2021/09/15 00:41:36;;;;;;;2.42;0.50;;;;;;;10.20;60.71;98695.44;5057766;28;20032;-61
2021/09/15 00:44:09;;;;;;;3.70;0.80;;;;;;;10.23;60.33;98697.03;5109843;28;20037;-62
2021/09/15 00:46:37;;;;;;;1.05;0.50;;;;;;;10.29;60.33;98712.34;5085576;28;20147;-67
2021/09/15 00:49:04;;;;;;;1.80;0.70;;;;;;;10.22;60.63;98708.34;5097015;28;20040;-66
2021/09/15 00:51:34;;;;;;;2.92;0.60;;;;;;;10.20;60.81;98707.59;5113263;28;20040;-65
2021/09/15 00:54:00;;;;;;;1.23;0.70;;;;;;;10.22;60.59;98717.88;5089173;28;20071;-66
2021/09/15 00:56:37;;;;;;;3.67;0.60;;;;;;;10.17;60.65;98705.13;5104476;28;20043;-64
2021/09/15 00:59:05;;;;;;;0.55;0.40;;;;;;;10.16;61.18;98706.03;5080862;28;20044;-65
2021/09/15 01:01:31;;;;;;;2.08;0.77;;;;;;;10.12;61.02;98689.75;5093015;28;20421;-64
2021/09/15 01:04:03;;;;;;;1.45;0.60;;;;;;;10.24;61.11;98701.34;5091624;28;20422;-65
2021/09/15 01:06:31;;;;;;;2.35;0.60;;;;;;;10.23;61.26;98701.41;5077481;28;20036;-66
2021/09/15 01:09:04;;;;;;;2.30;0.50;;;;;;;10.27;61.07;98710.72;5072803;28;20036;-66
2021/09/15 01:11:35;;;;;;;1.40;0.60;;;;;;;10.26;61.26;98706.47;5122718;27;20142;-66
2021/09/15 01:14:11;;;;;;;1.73;0.52;;;;;;;10.21;61.50;98711.84;5092891;28;20090;-64
2021/09/15 01:17:02;;;;;;;0.88;0.50;;;;;;;10.19;61.43;98709.34;5093573;28;20055;-65
2021/09/15 01:19:46;;;;;;;1.85;0.60;;;;;;;10.25;61.44;98710.81;5080545;28;20039;-65
2021/09/15 01:22:35;;;;;;;3.00;0.60;;;;;;;10.37;61.38;98714.53;5090269;28;20807;-64
2021/09/15 01:25:36;;;;;;;6.35;0.80;;;;;;;10.26;61.36;98720.25;5076041;28;20048;-65
2021/09/15 01:28:29;;;;;;;1.88;0.73;;;;;;;10.22;61.34;98723.94;5094971;28;20518;-65
2021/09/15 01:31:02;;;;;;;1.48;1.02;;;;;;;10.17;61.92;98723.31;5116344;27;20670;-65
2021/09/15 01:33:28;;;;;;;2.95;0.60;;;;;;;10.19;62.11;98726.69;5101877;27;20402;-66
2021/09/15 01:35:54;;;;;;;2.47;0.63;;;;;;;10.28;61.96;98720.19;5116198;27;20084;-63
2021/09/15 01:38:20;;;;;;;1.25;0.70;;;;;;;10.26;61.28;98717.66;5132964;27;20062;-64
2021/09/15 01:40:46;;;;;;;1.33;0.50;;;;;;;10.26;62.09;98722.84;5115795;27;20165;-65
2021/09/15 01:43:12;;;;;;;1.63;0.60;;;;;;;10.26;62.07;98719.44;5064199;28;20126;-64
2021/09/15 01:45:40;;;;;;;0.88;0.47;;;;;;;10.05;62.19;98695.28;5109258;28;20050;-64
2021/09/15 01:48:26;;;;;;;2.22;0.50;;;;;;;10.19;62.38;98724.94;5092992;28;20039;-64
2021/09/15 01:50:51;;;;;;;1.75;0.82;;;;;;;10.21;62.62;98724.84;5074692;28;20063;-64
2021/09/15 01:53:17;;;;;;;3.08;0.70;;;;;;;10.25;62.75;98718.59;5091598;28;20053;-65
2021/09/15 01:55:44;;;;;;;1.80;0.60;;;;;;;10.27;62.38;98716.75;5129435;27;20043;-64
2021/09/15 01:58:28;;;;;;;0.68;0.60;;;;;;;10.32;61.75;98724.31;5113106;28;20062;-65
2021/09/15 02:01:06;;;;;;;1.95;0.50;;;;;;;10.26;62.19;98729.84;5062763;28;20036;-65
2021/09/15 02:04:10;;;;;;;1.33;0.77;;;;;;;10.33;61.87;98724.25;5083458;28;20031;-65
2021/09/15 02:06:58;;;;;;;2.95;0.70;;;;;;;10.46;62.36;98727.13;5095210;28;20130;-64
2021/09/15 02:09:42;;;;;;;3.30;0.60;;;;;;;10.57;61.88;98732.63;5079553;28;20040;-65
2021/09/15 02:12:17;;;;;;;3.42;0.80;;;;;;;10.56;61.83;98729.19;5072178;28;20647;-65
2021/09/15 02:14:43;;;;;;;1.42;0.80;;;;;;;10.55;62.01;98730.09;5097268;28;20078;-65
2021/09/15 02:17:11;;;;;;;1.65;0.57;;;;;;;10.46;62.32;98720.16;5076782;28;20381;-64
2021/09/15 02:19:37;;;;;;;0.70;0.45;;;;;;;10.48;62.38;98738.25;5074617;28;20065;-65
2021/09/15 02:22:21;;;;;;;1.65;0.63;;;;;;;10.42;62.54;98735.94;5092084;28;20059;-63
2021/09/15 02:25:19;;;;;;;1.20;0.70;;;;;;;10.28;63.19;98725.41;5047558;28;20397;-68
2021/09/15 02:28:03;;;;;;;1.35;0.52;;;;;;;10.36;62.61;98731.91;5077483;28;20135;-66
2021/09/15 02:31:07;;;;;;;1.00;0.52;;;;;;;10.43;62.98;98738.47;5110516;28;20157;-65
2021/09/15 02:33:50;;;;;;;0.88;0.43;;;;;;;10.37;62.99;98741.38;5103380;27;20425;-64
2021/09/15 02:36:23;;;;;;;0.63;0.55;;;;;;;10.44;62.67;98742.75;5096903;27;20497;-66
2021/09/15 02:39:08;;;;;;;0.50;0.50;;;;;;;10.54;62.89;98745.75;5088629;28;20054;-64
2021/09/15 02:41:57;;;;;;;0.87;0.70;;;;;;;10.59;62.85;98755.00;5114493;27;20047;-64
2021/09/15 02:44:39;;;;;;;1.30;0.50;;;;;;;10.63;62.78;98742.69;5112647;28;20094;-63
2021/09/15 02:47:29;;;;;;;1.77;0.90;;;;;;;10.53;62.64;98757.06;5112524;28;20043;-65
2021/09/15 02:50:18;;;;;;;1.85;0.90;;;;;;;10.51;63.16;98751.09;5115481;27;20101;-64
2021/09/15 02:53:02;;;;;;;2.47;0.88;;;;;;;10.50;63.05;98747.66;5089274;28;20158;-63
2021/09/15 02:55:37;;;;;;;2.72;0.50;;;;;;;10.52;63.20;98753.63;5096585;28;20040;-63
2021/09/15 02:58:21;;;;;;;1.73;0.57;;;;;;;10.53;63.50;98757.91;5094061;28;20486;-63
2021/09/15 03:00:53;;;;;;;0.57;0.50;;;;;;;10.53;63.48;98767.44;5093876;28;20047;-63
2021/09/15 03:03:31;;;;;;;1.80;0.65;;;;;;;10.49;63.59;98760.72;5082710;28;20051;-63
2021/09/15 03:06:02;;;;;;;1.27;0.77;;;;;;;10.51;63.72;98761.50;5086197;28;20121;-64
2021/09/15 03:08:48;;;;;;;2.25;0.68;;;;;;;10.56;63.07;98764.72;5107502;28;20071;-63
2021/09/15 03:11:13;;;;;;;1.75;0.60;;;;;;;10.40;63.18;98745.59;5107570;28;20117;-64
2021/09/15 03:13:39;;;;;;;1.98;0.55;;;;;;;10.54;62.85;98769.13;5081281;28;20044;-65
2021/09/15 03:16:06;;;;;;;4.07;1.00;;;;;;;10.49;64.02;98766.78;5073714;28;20039;-65
2021/09/15 03:18:32;;;;;;;2.20;0.65;;;;;;;10.46;64.01;98756.53;5073393;28;20124;-64
2021/09/15 03:20:58;;;;;;;1.50;0.80;;;;;;;10.54;63.72;98757.00;5073234;28;20046;-64
2021/09/15 03:23:24;;;;;;;1.25;0.60;;;;;;;10.54;63.57;98776.94;5090684;28;20047;-61
2021/09/15 03:25:50;;;;;;;1.15;0.70;;;;;;;10.54;64.19;98775.19;5070692;28;20116;-64
2021/09/15 03:28:15;;;;;;;1.48;0.47;;;;;;;10.45;63.80;98767.84;5076755;28;20124;-64
2021/09/15 03:30:41;;;;;;;1.40;0.47;;;;;;;10.52;64.13;98776.19;5093613;28;20035;-64
2021/09/15 03:33:07;;;;;;;1.20;0.63;;;;;;;10.55;63.68;98774.28;5091492;27;20043;-65
2021/09/15 03:35:33;;;;;;;1.90;0.60;;;;;;;10.62;63.82;98780.03;5055693;28;20193;-63
2021/09/15 03:37:59;;;;;;;3.45;0.73;;;;;;;10.55;63.58;98776.03;5090640;28;20422;-64
2021/09/15 03:40:25;;;;;;;2.15;0.70;;;;;;;10.55;64.01;98782.06;5072990;28;20042;-63
2021/09/15 03:42:51;;;;;;;1.95;0.73;;;;;;;10.47;64.39;98781.59;5072977;28;20047;-64
2021/09/15 03:45:17;;;;;;;3.03;0.70;;;;;;;10.38;64.20;98770.78;5089185;28;20040;-65
2021/09/15 03:47:43;;;;;;;2.63;0.80;;;;;;;10.42;64.78;98783.56;5079451;28;20044;-66
2021/09/15 03:50:09;;;;;;;3.05;0.85;;;;;;;10.48;64.33;98792.81;5091423;28;20055;-63
2021/09/15 03:52:36;;;;;;;3.53;0.90;;;;;;;10.45;64.75;98792.97;5082920;28;20571;-63
2021/09/15 03:55:03;;;;;;;2.65;0.60;;;;;;;10.39;63.82;98777.69;5089367;28;20050;-63
2021/09/15 03:57:29;;;;;;;3.13;0.85;;;;;;;10.54;64.56;98793.38;5109967;28;20051;-63
2021/09/15 03:59:55;;;;;;;3.10;0.80;;;;;;;10.46;64.57;98790.31;5095931;28;20484;-65
2021/09/15 04:02:21;;;;;;;5.85;1.38;;;;;;;10.58;64.78;98799.25;5099588;28;20039;-65
2021/09/15 04:04:49;;;;;;;2.55;0.60;;;;;;;10.69;64.64;98807.38;5098308;28;20051;-65
2021/09/15 04:07:15;;;;;;;1.48;0.80;;;;;;;10.74;64.46;98809.75;5105994;28;20051;-65
2021/09/15 04:09:41;;;;;;;2.25;1.08;;;;;;;10.82;63.86;98818.03;5072349;28;20052;-65
2021/09/15 04:12:07;;;;;;;3.25;0.95;;;;;;;10.79;63.86;98811.22;5076109;28;20055;-65
2021/09/15 04:14:34;;;;;;;1.25;0.77;;;;;;;10.77;64.30;98818.25;5088493;28;20126;-64
2021/09/15 04:16:59;;;;;;;2.65;0.80;;;;;;;10.82;63.87;98818.03;5088808;28;20131;-64
2021/09/15 04:19:25;;;;;;;2.30;0.90;;;;;;;10.73;63.48;98802.88;5089085;28;20040;-65
2021/09/15 04:21:51;;;;;;;2.13;0.80;;;;;;;10.78;64.05;98822.50;5089399;28;20510;-64
2021/09/15 04:32:34;;;;;;;3.20;1.05;;;;;;;10.69;64.70;98815.19;5079270;28;20035;-65
2021/09/15 04:35:00;;;;;;;2.38;0.88;;;;;;;10.81;64.35;98831.94;5088662;28;20040;-63
2021/09/15 04:37:25;;;;;;;4.20;0.70;;;;;;;10.75;64.24;98825.28;5110058;28;20047;-63
2021/09/15 04:39:51;;;;;;;1.88;1.20;;;;;;;10.69;64.57;98803.94;5092481;28;20164;-63
2021/09/15 04:42:17;;;;;;;3.88;0.90;;;;;;;10.81;64.33;98829.34;5095685;28;20051;-64
2021/09/15 04:44:43;;;;;;;3.38;1.70;;;;;;;10.84;64.70;98822.22;5075639;28;20096;-65
2021/09/15 04:47:08;;;;;;;3.78;0.90;;;;;;;10.84;64.44;98837.81;5074689;28;20122;-63
2021/09/15 04:49:34;;;;;;;7.50;1.10;;;;;;;10.79;64.09;98826.81;5117089;28;20515;-66
2021/09/15 04:52:02;;;;;;;3.30;0.90;;;;;;;10.73;64.67;98842.69;5079296;28;20054;-64
2021/09/15 04:54:29;;;;;;;3.08;0.90;;;;;;;10.77;64.17;98846.84;5075400;28;20135;-66
2021/09/15 04:56:55;;;;;;;2.80;0.80;;;;;;;10.78;64.86;98847.72;5109989;28;20050;-66
2021/09/15 04:59:24;;;;;;;3.00;1.00;;;;;;;10.81;64.40;98847.53;5125131;28;20040;-65
2021/09/15 05:01:50;;;;;;;6.03;0.90;;;;;;;10.87;64.82;98849.84;5087453;28;20447;-65
2021/09/15 05:04:16;;;;;;;3.92;0.80;;;;;;;10.77;64.48;98859.00;5089003;28;20047;-65
2021/09/15 05:06:52;;;;;;;2.42;0.77;;;;;;;10.60;65.39;98852.03;5090632;28;20080;-66
2021/09/15 05:09:18;;;;;;;3.50;1.00;;;;;;;10.60;65.36;98858.06;5087809;28;20044;-66
2021/09/15 05:11:47;;;;;;;2.88;0.80;;;;;;;10.69;64.90;98863.72;5055886;28;20040;-66
2021/09/15 05:14:13;;;;;;;1.90;0.90;;;;;;;10.76;64.75;98865.97;5071065;28;20044;-64
2021/09/15 05:16:39;;;;;;;4.55;1.15;;;;;;;10.71;64.79;98872.31;5071766;28;20048;-63
2021/09/15 05:19:04;;;;;;;1.17;0.73;;;;;;;10.72;65.27;98867.03;5080366;28;20069;-64
2021/09/15 05:21:30;;;;;;;3.38;1.00;;;;;;;10.76;65.37;98875.53;5103144;28;20039;-65
2021/09/15 05:23:56;;;;;;;2.85;0.90;;;;;;;10.80;65.81;98866.66;5072005;28;20051;-62
2021/09/15 05:26:22;;;;;;;2.40;0.80;;;;;;;10.71;65.74;98872.31;5090835;28;20113;-63
2021/09/15 05:28:47;;;;;;;4.75;0.90;;;;;;;10.65;66.40;98881.22;5090224;28;20043;-70
2021/09/15 05:31:13;;;;;;;3.33;1.00;;;;;;;10.76;67.44;98878.13;5075864;28;20466;-62
2021/09/15 05:33:42;;;;;;;1.45;0.80;;;;;;;10.80;67.30;98880.50;5089728;28;20544;-69
2021/09/15 05:36:09;;;;;;;5.80;1.13;;;;;;;10.80;66.97;98872.69;5103958;28;20043;-73
2021/09/15 05:38:35;;;;;;;2.55;0.95;;;;;;;10.89;66.89;98877.44;5107671;28;20052;-73
2021/09/15 05:41:12;;;;;;;3.25;0.88;;;;;;;11.02;66.80;98875.09;5058543;28;20043;-68
2021/09/15 05:43:40;;;;;;;1.90;0.85;;;;;;;10.89;66.29;98877.44;5085533;28;20046;-67
2021/09/15 05:46:12;;;;;;;1.88;1.20;;;;;;;11.00;66.46;98879.53;5088645;28;20108;-66
2021/09/15 05:48:38;;;;;;;2.13;0.70;;;;;;;10.92;66.19;98892.06;5088473;28;20726;-63
2021/09/15 05:51:04;;;;;;;3.72;0.95;;;;;;;10.87;66.87;98891.47;5094345;28;20040;-64
2021/09/15 05:53:31;;;;;;;3.40;0.80;;;;;;;10.88;66.55;98881.00;5077675;28;20050;-62
2021/09/15 05:55:57;;;;;;;4.93;1.10;;;;;;;10.94;66.46;98880.66;5069672;28;20062;-64
2021/09/15 05:58:23;;;;;;;10.50;4.20;;;;;;;11.07;66.09;98898.28;5091346;28;20055;-63
2021/09/15 06:00:48;;;;;;;3.75;1.17;;;;;;;11.15;66.08;98904.78;5095805;28;20119;-65
2021/09/15 06:03:17;;;;;;;1.77;0.90;;;;;;;11.23;65.90;98899.22;5086305;28;20054;-65
2021/09/15 06:06:08;;;;;;;1.27;0.95;;;;;;;11.34;66.16;98904.72;5074023;28;20040;-64
2021/09/15 06:08:34;;;;;;;2.25;1.40;;;;;;;11.45;66.03;98898.09;5093223;28;20067;-63
2021/09/15 06:11:00;;;;;;;2.00;0.80;;;;;;;11.41;65.54;98893.09;5123380;27;20426;-63
2021/09/15 06:13:25;;;;;;;4.22;1.40;;;;;;;11.54;65.23;98914.97;5088657;28;20049;-63
2021/09/15 06:15:52;;;;;;;2.60;0.77;;;;;;;11.62;65.71;98917.22;5108191;28;20138;-63
2021/09/15 06:18:19;;;;;;;1.30;0.73;;;;;;;11.55;65.51;98919.28;5091041;28;20475;-64
2021/09/15 06:21:20;;;;;;;3.40;1.10;;;;;;;11.49;66.10;98916.97;5063669;28;20044;-63
2021/09/15 06:23:58;;;;;;;1.45;0.85;;;;;;;11.46;66.03;98920.56;5097999;27;20043;-62
2021/09/15 06:26:26;;;;;;;3.80;0.90;;;;;;;11.51;66.72;98919.50;5114829;27;20035;-63
2021/09/15 06:28:53;;;;;;;2.85;1.00;;;;;;;11.55;66.80;98924.47;5084664;28;20048;-63
2021/09/15 06:31:19;;;;;;;2.22;1.40;;;;;;;11.64;66.29;98930.97;5111385;28;20066;-64
2021/09/15 06:33:45;;;;;;;4.47;1.27;;;;;;;11.72;66.13;98926.25;5083097;28;20043;-65
2021/09/15 06:36:11;;;;;;;2.17;0.98;;;;;;;11.72;66.01;98927.06;5104646;28;20130;-63
2021/09/15 06:38:37;;;;;;;6.10;1.67;;;;;;;11.73;65.25;98914.91;5111648;28;20142;-62
2021/09/15 06:41:02;;;;;;;4.70;1.40;;;;;;;11.87;65.39;98928.09;5093355;28;20085;-63
2021/09/15 06:43:28;;;;;;;3.15;1.67;;;;;;;11.93;65.08;98929.53;5099293;28;20194;-63
2021/09/15 06:45:54;;;;;;;4.65;1.45;;;;;;;11.92;65.33;98928.69;5091502;28;20043;-63
2021/09/15 06:48:20;;;;;;;2.58;1.00;;;;;;;11.97;65.15;98934.50;5074837;28;20092;-63
2021/09/15 06:50:47;;;;;;;4.03;2.15;;;;;;;12.08;64.98;98931.34;5082895;28;20503;-62
2021/09/15 06:53:13;;;;;;;2.13;1.83;;;;;;;12.12;64.74;98931.09;5089362;28;20048;-63
2021/09/15 06:55:41;;;;;;;1.65;0.98;;;;;;;12.18;65.10;98946.41;5092522;28;20067;-62
2021/09/15 06:58:07;;;;;;;3.22;0.88;;;;;;;12.18;64.90;98935.13;5072967;28;20040;-58
2021/09/15 07:00:34;;;;;;;1.88;0.80;;;;;;;12.09;64.74;98938.25;5091441;28;20032;-60
2021/09/15 07:03:02;;;;;;;3.22;1.00;;;;;;;12.14;65.00;98934.44;5091398;28;20040;-62
2021/09/15 07:05:28;;;;;;;1.38;0.80;;;;;;;12.14;64.73;98937.03;5090316;28;20040;-63
2021/09/15 07:07:55;;;;;;;6.28;2.67;;;;;;;12.09;64.19;98941.66;5107527;28;20039;-65
2021/09/15 07:10:21;;;;;;;2.33;0.90;;;;;;;12.05;64.37;98931.47;5095147;28;20061;-63
2021/09/15 07:12:47;;;;;;;3.95;0.90;;;;;;;12.00;63.93;98938.69;5091640;28;20363;-63
2021/09/15 07:15:14;;;;;;;5.90;1.70;;;;;;;12.01;63.46;98920.38;5090943;28;20087;-62
2021/09/15 07:17:39;;;;;;;1.55;0.88;;;;;;;12.04;63.17;98929.78;5090675;28;20094;-62
2021/09/15 07:20:05;;;;;;;4.40;0.82;;;;;;;12.05;62.93;98924.50;5093422;28;20521;-64
2021/09/15 07:22:45;;;;;;;3.83;0.95;;;;;;;12.11;62.80;98924.19;5085431;28;20093;-62
2021/09/15 07:25:11;;;;;;;1.10;0.70;;;;;;;12.28;62.29;98931.13;5090857;28;20052;-59
2021/09/15 07:27:36;;;;;;;4.30;0.80;;;;;;;12.28;61.88;98942.41;5091010;28;20075;-61
2021/09/15 07:30:03;;;;;;;5.18;1.08;;;;;;;12.23;62.01;98943.56;5090570;28;20039;-62
2021/09/15 07:32:28;;;;;;;1.25;0.85;;;;;;;12.12;62.11;98936.31;5099136;27;20051;-62
2021/09/15 07:34:54;;;;;;;6.32;2.67;;;;;;;12.16;61.98;98956.06;5113115;27;20091;-62
2021/09/15 07:37:20;;;;;;;2.58;0.90;;;;;;;12.04;62.19;98940.22;5123028;27;20122;-69
2021/09/15 07:39:46;;;;;;;1.70;0.95;;;;;;;11.97;62.39;98951.88;5111168;28;20496;-63
2021/09/15 07:42:13;;;;;;;3.38;0.88;;;;;;;11.97;62.01;98955.34;5098794;28;20031;-62
2021/09/15 07:44:39;;;;;;;1.48;1.00;;;;;;;11.92;62.03;98954.75;5110021;28;20471;-61
2021/09/15 07:47:05;;;;;;;1.90;0.80;;;;;;;11.98;61.72;98966.59;5110196;28;20490;-65
2021/09/15 07:49:31;;;;;;;3.13;0.90;;;;;;;11.92;61.32;98953.88;5089151;28;20040;-63
2021/09/15 07:51:57;;;;;;;4.00;0.77;;;;;;;11.94;60.66;98965.91;5090354;28;20032;-65
2021/09/15 07:54:23;;;;;;;3.08;0.80;;;;;;;11.73;60.46;98935.75;5106341;27;20430;-62
2021/09/15 07:56:49;;;;;;;4.43;1.08;;;;;;;11.84;59.96;98965.53;5095993;28;20032;-63
2021/09/15 07:59:15;;;;;;;2.22;1.00;;;;;;;11.84;60.29;98973.34;5072700;28;20042;-61
2021/09/15 08:01:40;;;;;;;10.63;1.30;;;;;;;11.93;60.63;98973.81;5101037;28;20044;-60
2021/09/15 08:04:06;;;;;;;3.03;1.02;;;;;;;11.93;60.40;98950.38;5089163;28;20078;-61
2021/09/15 08:06:32;;;;;;;3.92;1.73;;;;;;;12.18;60.50;98977.69;5098775;27;20028;-60
2021/09/15 08:08:57;;;;;;;4.78;0.82;;;;;;;12.27;59.96;98971.97;5097306;28;20043;-62
2021/09/15 08:11:23;;;;;;;7.93;1.10;;;;;;;12.33;59.56;98981.25;5110965;28;20042;-61
2021/09/15 08:13:51;;;;;;;3.15;0.80;;;;;;;12.38;59.59;98976.63;5075538;28;20463;-57
2021/09/15 08:16:17;;;;;;;11.20;1.10;;;;;;;12.41;58.92;98965.19;5075428;28;20507;-61
2021/09/15 08:18:42;;;;;;;3.45;0.80;;;;;;;12.51;58.73;98977.66;5058777;28;20048;-57
2021/09/15 08:21:08;;;;;;;1.80;0.90;;;;;;;12.51;58.54;98979.44;5089002;28;20043;-64
2021/09/15 08:23:34;;;;;;;3.38;1.20;;;;;;;12.61;58.43;98991.06;5102476;28;20120;-58
2021/09/15 08:26:00;;;;;;;7.65;4.15;;;;;;;12.64;58.59;98988.28;5091338;28;20505;-60
2021/09/15 08:28:26;;;;;;;2.42;0.98;;;;;;;12.62;58.20;98987.50;5105244;28;20048;-58
2021/09/15 08:30:52;;;;;;;2.78;0.82;;;;;;;12.59;57.85;98998.09;5096046;27;20036;-56
2021/09/15 08:33:18;;;;;;;0.93;0.70;;;;;;;12.51;57.83;98992.47;5124316;27;20047;-59
2021/09/15 08:35:43;;;;;;;2.92;0.80;;;;;;;12.46;57.90;98994.44;5090134;28;20039;-60
2021/09/15 08:38:13;;;;;;;1.92;1.20;;;;;;;12.50;57.56;99002.06;5091270;28;20121;-63
2021/09/15 08:40:40;;;;;;;1.17;0.60;;;;;;;12.59;57.66;99003.31;5089496;28;20028;-63
2021/09/15 08:43:06;;;;;;;2.17;0.75;;;;;;;12.45;56.69;98996.25;5108535;27;20047;-64
2021/09/15 08:45:31;;;;;;;1.80;1.10;;;;;;;12.53;56.89;99007.09;5094431;28;20051;-61
2021/09/15 08:48:00;;;;;;;3.72;0.80;;;;;;;12.66;56.92;99015.13;5103421;28;20035;-64
2021/09/15 08:50:26;;;;;;;2.28;1.00;;;;;;;12.83;56.43;99017.66;5080428;28;20043;-59
2021/09/15 08:52:52;;;;;;;7.32;1.25;;;;;;;12.92;56.01;99006.72;5085952;28;20044;-59
2021/09/15 08:55:18;;;;;;;8.32;3.47;;;;;;;13.14;55.62;99002.03;5098295;28;20048;-63
2021/09/15 08:57:44;;;;;;;4.07;1.08;;;;;;;13.29;55.62;99018.63;5091833;28;20039;-63
2021/09/15 09:00:11;;;;;;;3.53;1.10;;;;;;;13.33;55.17;99012.28;5106615;28;20118;-62
2021/09/15 09:02:43;;;;;;;3.50;1.17;;;;;;;13.29;55.23;99017.78;5104641;28;20044;-60
2021/09/15 09:05:10;;;;;;;2.15;0.82;;;;;;;13.24;55.41;99025.84;5088924;28;20043;-63
2021/09/15 09:07:35;;;;;;;1.33;0.70;;;;;;;12.96;54.96;99030.88;5083296;28;20036;-61
2021/09/15 09:10:07;;;;;;;3.83;0.80;;;;;;;12.89;55.25;99037.34;5103898;28;20419;-61
2021/09/15 09:12:33;;;;;;;1.75;0.70;;;;;;;12.86;55.07;99033.16;5109797;28;20035;-63
2021/09/15 09:15:14;;;;;;;3.42;1.00;;;;;;;12.89;54.94;99043.41;5092040;28;20472;-62
2021/09/15 09:17:40;;;;;;;4.43;1.35;;;;;;;12.74;54.79;99033.81;5099712;28;20538;-60
2021/09/15 09:20:24;;;;;;;3.58;1.30;;;;;;;12.99;54.73;99038.53;5097316;28;20042;-62
2021/09/15 09:23:07;;;;;;;1.20;1.10;;;;;;;13.05;54.39;99039.03;5111203;28;20066;-58
2021/09/15 09:25:34;;;;;;;3.90;2.03;;;;;;;13.27;54.11;99035.28;5110437;28;20122;-61
2021/09/15 09:28:01;;;;;;;45.55;3.55;;;;;;;13.38;54.07;99038.16;5108519;28;20055;-63
2021/09/15 09:30:37;;;;;;;2.25;0.80;;;;;;;13.50;53.97;99040.88;5093725;28;20123;-61
2021/09/15 09:33:05;;;;;;;9.48;1.55;;;;;;;13.61;53.62;99037.66;5110502;27;20425;-64
2021/09/15 09:35:41;;;;;;;6.47;1.50;;;;;;;13.72;53.47;99037.06;5097321;28;20040;-62
2021/09/15 09:38:22;;;;;;;2.08;0.60;;;;;;;13.60;52.80;99043.00;5110916;28;20129;-62
2021/09/15 09:41:12;;;;;;;4.45;0.60;;;;;;;13.44;53.05;99045.63;5102253;28;20069;-62
2021/09/15 09:43:42;;;;;;;3.45;0.80;;;;;;;13.51;52.46;99039.97;5094091;28;20039;-61
2021/09/15 09:46:10;;;;;;;5.45;0.85;;;;;;;13.40;52.82;99039.72;5093022;28;20043;-61
2021/09/15 09:48:45;;;;;;;4.60;2.53;;;;;;;13.46;53.04;99048.97;5093011;28;20122;-60
2021/09/15 09:51:25;;;;;;;1.83;0.77;;;;;;;13.52;53.13;99054.72;5090643;28;20119;-55
2021/09/15 09:54:06;;;;;;;1.25;0.70;;;;;;;13.65;51.99;99054.88;5091454;28;20569;-62
2021/09/15 09:56:34;;;;;;;0.70;0.60;;;;;;;13.82;51.65;99035.59;5107811;28;20040;-60
2021/09/15 09:59:00;;;;;;;2.08;0.60;;;;;;;14.23;51.27;99052.34;5097226;28;20031;-62
2021/09/15 10:01:27;;;;;;;4.88;0.60;;;;;;;14.39;50.36;99053.13;5092098;28;20502;-60
2021/09/15 10:03:52;;;;;;;2.15;0.70;;;;;;;14.67;49.83;99049.69;5074447;28;20047;-60
2021/09/15 10:06:19;;;;;;;1.33;0.63;;;;;;;14.68;49.60;99056.59;5089002;28;20039;-63
2021/09/15 10:08:46;;;;;;;2.58;0.60;;;;;;;14.69;49.36;99055.69;5090864;28;20094;-62
2021/09/15 10:11:14;;;;;;;2.40;0.68;;;;;;;14.99;48.65;99062.56;5109055;27;20518;-63
2021/09/15 10:13:39;;;;;;;1.52;0.85;;;;;;;15.34;47.99;99052.47;5089603;28;20047;-62
2021/09/15 10:16:06;;;;;;;3.78;1.60;;;;;;;15.64;46.52;99055.81;5108820;28;20043;-63
2021/09/15 10:18:32;;;;;;;4.63;1.85;;;;;;;16.50;44.75;99042.06;5093872;28;20130;-64
2021/09/15 10:20:58;;;;;;;1.75;0.80;;;;;;;16.73;44.32;99039.69;5113055;28;20417;-63
2021/09/15 10:23:34;;;;;;;3.30;1.88;;;;;;;16.73;44.08;99050.19;5106939;28;20049;-59
2021/09/15 10:26:26;;;;;;;0.85;0.50;;;;;;;16.69;43.98;99051.34;5079040;28;20099;-61
2021/09/15 10:29:17;;;;;;;2.30;0.70;;;;;;;17.29;42.66;99060.16;5092406;28;20075;-61
2021/09/15 10:31:53;;;;;;;0.70;0.63;;;;;;;17.49;41.76;99066.59;5104465;28;20059;-60
2021/09/15 10:34:40;;;;;;;1.35;0.50;;;;;;;16.99;40.72;99059.72;5104630;28;20062;-60
2021/09/15 10:37:12;;;;;;;3.35;0.60;;;;;;;16.33;41.92;99068.63;5074073;28;20475;-60
2021/09/15 10:40:01;;;;;;;0.60;0.60;;;;;;;16.27;43.25;99069.06;5090404;28;20064;-59
2021/09/15 10:42:36;;;;;;;2.38;1.00;;;;;;;16.40;42.67;99076.91;5060967;28;20519;-60
2021/09/15 10:45:21;;;;;;;1.67;1.00;;;;;;;16.25;42.77;99070.94;5110546;28;20089;-60
2021/09/15 10:47:50;;;;;;;1.17;0.80;;;;;;;16.17;43.22;99081.09;5111845;28;20070;-60
2021/09/15 10:50:27;;;;;;;;;;;;;;;15.74;43.61;99082.25;5112764;28;20399;-58
2021/09/15 10:53:12;;;;;;;1.58;0.88;;;;;;;15.37;43.89;99073.25;5111301;28;19922;-57
2021/09/15 10:55:38;;;;;;;0.90;0.52;;;;;;;15.24;44.47;99083.66;5091558;28;20604;-62
2021/09/15 10:58:26;;;;;;;1.70;0.73;;;;;;;15.03;44.62;99077.97;5092469;28;20129;-58
2021/09/15 11:01:00;;;;;;;1.80;0.57;;;;;;;14.93;45.02;99079.47;5092529;28;20039;-56
2021/09/15 11:03:38;;;;;;;9.77;0.98;;;;;;;14.75;45.09;99091.09;5090799;28;20499;-60
2021/09/15 11:06:07;;;;;;;1.95;1.08;;;;;;;14.69;45.36;99079.22;5104411;28;20180;-59
2021/09/15 11:08:40;;;;;;;3.47;0.70;;;;;;;14.63;45.52;99086.59;5112629;28;20112;-58
2021/09/15 11:11:11;;;;;;;1.95;0.93;;;;;;;14.54;45.72;99088.00;5112541;28;20040;-58
2021/09/15 11:13:37;;;;;;;3.42;0.90;;;;;;;14.49;45.83;99089.19;5102626;28;20070;-60
2021/09/15 11:16:30;;;;;;;0.82;0.50;;;;;;;14.60;45.71;99097.25;5091055;28;20506;-59
2021/09/15 11:19:04;;;;;;;2.63;0.82;;;;;;;14.73;45.79;99095.56;5105822;28;20058;-56
2021/09/15 11:21:32;;;;;;;0.55;0.40;;;;;;;14.64;45.17;99086.50;5106857;28;20069;-56
2021/09/15 11:24:01;;;;;;;2.15;0.60;;;;;;;14.59;45.10;99090.34;5090868;28;20067;-58
2021/09/15 11:26:58;;;;;;;0.75;0.50;;;;;;;14.68;44.81;99095.00;5095478;28;20043;-56
2021/09/15 11:29:50;;;;;;;0.30;0.30;;;;;;;14.81;44.54;99096.78;5082474;28;20047;-60
2021/09/15 11:32:17;;;;;;;2.30;0.70;;;;;;;14.93;43.59;99089.94;5108277;28;20424;-55
2021/09/15 11:34:45;;;;;;;0.50;0.50;;;;;;;15.08;43.19;99089.00;5086151;28;20061;-56
2021/09/15 11:37:31;;;;;;;1.50;0.68;;;;;;;15.37;42.83;99087.19;5106740;28;20452;-56
2021/09/15 11:40:02;;;;;;;1.58;0.77;;;;;;;15.57;41.91;99075.47;5102273;28;20633;-54
2021/09/15 11:42:30;;;;;;;1.20;0.60;;;;;;;15.67;41.69;99073.94;5098511;28;20047;-54
2021/09/15 11:45:09;;;;;;;2.08;0.60;;;;;;;15.61;41.54;99058.59;5105588;27;20039;-56
2021/09/15 11:47:35;;;;;;;1.13;0.70;;;;;;;15.85;41.70;99077.16;5087342;28;20083;-56
2021/09/15 11:50:35;;;;;;;0.95;0.65;;;;;;;16.06;42.25;99075.72;5109559;28;20071;-59
2021/09/15 11:53:12;;;;;;;0.65;0.50;;;;;;;16.45;41.42;99077.44;5110711;28;20124;-56
2021/09/15 11:55:47;;;;;;;3.05;0.70;;;;;;;16.46;40.78;99066.00;5108919;28;20044;-56
2021/09/15 11:58:13;;;;;;;0.98;0.60;;;;;;;16.32;40.65;99080.06;5099014;28;20051;-56